Nanticoke — VCQL — position and weather

sailwx.info

Track history (hours):
 
Tides and Currents Weather Stations Pressure Air Temp Water Temp Dewpoint Dewpoint Depression Visibility Wind Speed Wind Dir Waves Ship Positions

Nanticoke

Last reported at 2016-Mar-10 13:33 UTC. Time now 2016-May-24 19:37 UTC.
Position N 45°34' W 073°31'.
Warning: this ship's position is months out of date.

Length 223 m; draft 7.3 m.

Type: Cargo ship. MMSI: 316043000.

Date/timePositionNaut miles runAvg speedWind from/ knotsBaromVisibWave heightAir tempDewpointWater temp
2016-Mar-10 13:33N 45°34' W 073°31'0 0.0
2016-Mar-10 12:34N 45°34' W 073°31'0 0.0
2016-Mar-10 11:33N 45°34' W 073°31'0 0.0
2016-Mar-10 10:33N 45°34' W 073°31'5 3.8
2016-Mar-10 09:14N 45°38' W 073°29'6 9.0
2016-Mar-10 08:33N 45°44' W 073°25'9 9.4
2016-Mar-10 07:33N 45°51' W 073°16'9 9.1
2016-Mar-10 06:33N 45°59' W 073°11'9 8.8
2016-Mar-10 05:33N 46°05' W 073°01'9 9.0
2016-Mar-10 04:33N 46°12' W 072°53'  
Track history (hours):
 
Tides and Currents Weather Stations Pressure Air Temp Water Temp Dewpoint Dewpoint Depression Visibility Wind Speed Wind Dir Waves Ship Positions

Nanticoke

Last reported at 2016-Mar-10 13:33 UTC. Time now 2016-May-24 19:37 UTC.
Position N 45°34' W 073°31'.
Warning: this ship's position is months out of date.

Length 223 m; draft 7.3 m.

Type: Cargo ship. MMSI: 316043000.

Date/timePositionNaut miles runAvg speedWind from/ knotsBaromVisibWave heightAir tempDewpointWater temp
2016-Mar-10 13:33N 45°34' W 073°31'0 0.0
2016-Mar-10 12:34N 45°34' W 073°31'0 0.0
2016-Mar-10 11:33N 45°34' W 073°31'0 0.0
2016-Mar-10 10:33N 45°34' W 073°31'5 3.8
2016-Mar-10 09:14N 45°38' W 073°29'6 9.0
2016-Mar-10 08:33N 45°44' W 073°25'9 9.4
2016-Mar-10 07:33N 45°51' W 073°16'9 9.1
2016-Mar-10 06:33N 45°59' W 073°11'9 8.8
2016-Mar-10 05:33N 46°05' W 073°01'9 9.0
2016-Mar-10 04:33N 46°12' W 072°53'  

Dump ship's entire track history